createdAt,value
2023-01-13T00:01:16.112Z,99545.41
2023-01-13T00:03:43.800Z,99553.66
2023-01-13T00:06:21.473Z,99556.56
2023-01-13T00:08:49.727Z,99565.59
2023-01-13T00:11:16.779Z,99555.81
2023-01-13T00:13:43.321Z,99554.22
2023-01-13T00:16:17.944Z,99549.22
2023-01-13T00:18:45.925Z,99540.13
2023-01-13T00:21:19.227Z,99531.75
2023-01-13T00:23:46.271Z,99531.16
2023-01-13T00:26:19.235Z,99547.50
2023-01-13T00:28:45.880Z,99550.25
2023-01-13T00:31:20.686Z,99535.97
2023-01-13T00:33:51.634Z,99544.84
2023-01-13T00:36:20.222Z,99544.03
2023-01-13T00:38:47.771Z,99548.47
2023-01-13T00:41:25.267Z,99545.94
2023-01-13T00:43:51.901Z,99551.44
2023-01-13T00:46:20.594Z,99559.00
2023-01-13T00:48:47.760Z,99546.34
2023-01-13T00:51:19.807Z,99544.72
2023-01-13T00:53:49.478Z,99549.41
2023-01-13T00:56:34.145Z,99549.56
2023-01-13T00:59:04.962Z,99556.03
2023-01-13T01:01:31.667Z,99547.41
2023-01-13T01:03:58.419Z,99559.53
2023-01-13T01:06:26.955Z,99553.31
2023-01-13T01:08:54.867Z,99560.25
2023-01-13T01:11:27.857Z,99561.84
2023-01-13T01:13:56.242Z,99546.84
2023-01-13T01:16:24.837Z,99545.03
2023-01-13T01:18:53.212Z,99543.59
2023-01-13T01:21:21.211Z,99551.75
2023-01-13T01:23:47.964Z,99551.03
2023-01-13T01:26:20.317Z,99552.91
2023-01-13T01:28:47.464Z,99542.50
2023-01-13T01:31:19.833Z,99542.19
2023-01-13T01:33:47.565Z,99556.13
2023-01-13T01:36:17.625Z,99551.41
2023-01-13T01:38:44.886Z,99552.03
2023-01-13T01:41:15.784Z,99563.44
2023-01-13T01:43:59.604Z,99571.06
2023-01-13T01:46:32.155Z,99557.84
2023-01-13T01:49:06.478Z,99577.75
2023-01-13T01:51:38.677Z,99577.97
2023-01-13T01:54:09.580Z,99578.34
2023-01-13T01:56:37.475Z,99574.06
2023-01-13T01:59:04.218Z,99563.34
2023-01-13T02:01:33.896Z,99570.63
2023-01-13T02:04:09.444Z,99574.53
2023-01-13T02:06:36.518Z,99574.34
2023-01-13T02:09:03.687Z,99570.03
2023-01-13T02:11:52.084Z,99574.03
2023-01-13T02:14:22.049Z,99570.56
2023-01-13T02:16:59.314Z,99563.69
2023-01-13T02:19:54.685Z,99573.09
2023-01-13T02:22:56.685Z,99566.50
2023-01-13T02:25:29.465Z,99565.94
2023-01-13T02:28:04.996Z,99566.16
2023-01-13T02:31:00.858Z,99572.13
2023-01-13T02:33:45.813Z,99571.66
2023-01-13T02:36:16.340Z,99587.44
2023-01-13T02:38:50.918Z,99575.53
2023-01-13T02:42:11.714Z,99578.00
2023-01-13T02:44:48.887Z,99579.69
2023-01-13T02:47:25.955Z,99578.72
2023-01-13T02:50:01.983Z,99575.91
2023-01-13T02:52:37.377Z,99573.50
2023-01-13T02:55:06.807Z,99573.41
2023-01-13T02:57:36.441Z,99561.84
2023-01-13T03:00:06.153Z,99564.91
2023-01-13T03:02:32.862Z,99569.81
2023-01-13T03:05:00.761Z,99556.34
2023-01-13T03:07:39.865Z,99562.53
2023-01-13T03:10:19.551Z,99552.88
2023-01-13T03:13:05.484Z,99562.31
2023-01-13T03:15:42.635Z,99554.72
2023-01-13T03:18:46.299Z,99564.28
2023-01-13T03:21:21.264Z,99545.84
2023-01-13T03:23:52.108Z,99545.78
2023-01-13T03:26:24.822Z,99554.03
2023-01-13T03:29:17.945Z,99561.53
2023-01-13T03:31:54.179Z,99552.66
2023-01-13T03:34:24.343Z,99553.59
2023-01-13T03:36:55.107Z,99560.00
2023-01-13T03:39:29.176Z,99548.66
2023-01-13T03:42:01.526Z,99555.84
2023-01-13T03:44:53.245Z,99550.47
2023-01-13T03:47:50.983Z,99540.09
2023-01-13T03:50:49.354Z,99544.56
2023-01-13T03:53:23.572Z,99537.22
2023-01-13T03:56:02.951Z,99544.09
2023-01-13T03:58:35.239Z,99546.25
2023-01-13T04:01:26.196Z,99545.94
2023-01-13T04:04:10.746Z,99548.22
2023-01-13T04:07:09.487Z,99530.00
2023-01-13T04:09:38.910Z,99547.75
2023-01-13T04:12:18.594Z,99541.63
2023-01-13T04:14:46.198Z,99528.47
2023-01-13T04:17:12.914Z,99514.50
2023-01-13T04:19:39.451Z,99521.06
2023-01-13T04:22:06.325Z,99514.13
2023-01-13T04:24:32.966Z,99520.13
2023-01-13T04:26:59.545Z,99533.91
2023-01-13T04:29:26.571Z,99532.69
2023-01-13T04:31:53.115Z,99536.19
2023-01-13T04:34:19.743Z,99538.72
2023-01-13T04:36:46.359Z,99535.03
2023-01-13T04:39:12.967Z,99524.00
2023-01-13T04:41:57.745Z,99528.31
2023-01-13T04:44:24.362Z,99530.97
2023-01-13T04:46:50.975Z,99524.63
2023-01-13T04:49:17.615Z,99529.53
2023-01-13T04:51:44.145Z,99529.00
2023-01-13T04:54:11.358Z,99524.84
2023-01-13T04:56:37.909Z,99527.28
2023-01-13T04:59:04.551Z,99531.13
2023-01-13T05:01:31.120Z,99537.44
2023-01-13T05:03:57.863Z,99538.56
2023-01-13T05:06:24.381Z,99541.66
2023-01-13T05:08:50.980Z,99530.41
2023-01-13T05:11:36.045Z,99543.16
2023-01-13T05:14:21.305Z,99519.41
2023-01-13T05:17:01.001Z,99521.72
2023-01-13T05:19:35.328Z,99529.19
2023-01-13T05:22:21.003Z,99516.84
2023-01-13T05:25:06.438Z,99523.94
2023-01-13T05:27:33.569Z,99526.63
2023-01-13T05:30:00.195Z,99518.50
2023-01-13T05:32:30.235Z,99529.97
2023-01-13T05:34:56.864Z,99526.41
2023-01-13T05:37:24.497Z,99532.59
2023-01-13T05:40:10.333Z,99528.53
2023-01-13T05:42:55.680Z,99542.56
2023-01-13T05:45:22.334Z,99550.59
2023-01-13T05:47:48.916Z,99537.50
2023-01-13T05:50:16.187Z,99543.03
2023-01-13T05:52:43.414Z,99538.56
2023-01-13T05:55:11.096Z,99532.84
2023-01-13T05:57:37.658Z,99529.31
2023-01-13T06:00:05.292Z,99520.97
2023-01-13T06:02:38.223Z,99527.16
2023-01-13T06:05:05.023Z,99528.31
2023-01-13T06:07:31.676Z,99539.78
2023-01-13T06:09:58.190Z,99535.41
2023-01-13T06:12:24.717Z,99529.81
2023-01-13T06:14:51.231Z,99535.91
2023-01-13T06:17:17.882Z,99541.28
2023-01-13T06:19:44.539Z,99530.84
2023-01-13T06:22:23.247Z,99547.00
2023-01-13T06:24:50.772Z,99548.56
2023-01-13T06:27:18.136Z,99558.13
2023-01-13T06:29:44.696Z,99554.13
2023-01-13T06:32:22.102Z,99559.84
2023-01-13T06:34:58.033Z,99561.50
2023-01-13T06:37:26.074Z,99557.00
2023-01-13T06:39:58.436Z,99559.56
2023-01-13T06:42:46.930Z,99559.50
2023-01-13T06:45:13.997Z,99564.84
2023-01-13T06:47:40.931Z,99572.94
2023-01-13T06:50:07.931Z,99584.16
2023-01-13T06:52:34.438Z,99584.78
2023-01-13T06:55:01.093Z,99577.31
2023-01-13T06:57:27.625Z,99586.03
2023-01-13T06:59:54.220Z,99582.66
2023-01-13T07:02:20.891Z,99576.66
2023-01-13T07:04:47.657Z,99584.75
2023-01-13T07:07:14.322Z,99580.53
2023-01-13T07:09:40.900Z,99577.75
2023-01-13T07:12:07.716Z,99587.34
2023-01-13T07:14:54.339Z,99586.25
2023-01-13T07:17:25.012Z,99585.56
2023-01-13T07:19:53.032Z,99589.06
2023-01-13T07:22:19.606Z,99585.91
2023-01-13T07:24:46.216Z,99588.56
2023-01-13T07:27:12.792Z,99600.41
2023-01-13T07:29:39.663Z,99596.59
2023-01-13T07:32:07.705Z,99590.44
2023-01-13T07:34:34.455Z,99594.19
2023-01-13T07:37:01.761Z,99588.13
2023-01-13T07:39:28.325Z,99590.44
2023-01-13T07:42:13.377Z,99588.63
2023-01-13T07:44:39.976Z,99594.00
2023-01-13T07:47:08.448Z,99595.81
2023-01-13T07:49:35.164Z,99603.41
2023-01-13T07:52:02.184Z,99615.22
2023-01-13T07:54:40.184Z,99625.34
2023-01-13T07:57:09.070Z,99614.47
2023-01-13T07:59:35.644Z,99612.06
2023-01-13T08:02:02.579Z,99620.66
2023-01-13T08:04:29.178Z,99618.31
2023-01-13T08:06:55.739Z,99623.22
2023-01-13T08:09:22.308Z,99625.09
2023-01-13T08:12:08.821Z,99624.66
2023-01-13T08:14:35.529Z,99636.94
2023-01-13T08:17:02.031Z,99630.72
2023-01-13T08:19:28.576Z,99626.09
2023-01-13T08:21:55.099Z,99637.59
2023-01-13T08:24:21.768Z,99642.16
2023-01-13T08:26:48.347Z,99648.06
2023-01-13T08:29:15.283Z,99660.69
2023-01-13T08:31:41.962Z,99652.34
2023-01-13T08:34:08.988Z,99645.53
2023-01-13T08:36:35.529Z,99656.66
2023-01-13T08:39:02.184Z,99649.53
2023-01-13T08:41:47.031Z,99643.47
2023-01-13T08:44:13.599Z,99651.53
2023-01-13T08:46:41.707Z,99653.22
2023-01-13T08:49:08.266Z,99651.25
2023-01-13T08:51:34.870Z,99646.47
2023-01-13T08:54:02.113Z,99645.16
2023-01-13T08:56:35.012Z,99660.06
2023-01-13T08:59:02.216Z,99643.03
2023-01-13T09:01:28.976Z,99650.22
2023-01-13T09:03:56.093Z,99658.09
2023-01-13T09:06:22.750Z,99663.03
2023-01-13T09:08:49.659Z,99665.16
2023-01-13T09:11:44.471Z,99651.97
2023-01-13T09:14:11.068Z,99662.81
2023-01-13T09:16:37.589Z,99670.44
2023-01-13T09:19:04.165Z,99667.25
2023-01-13T09:21:30.654Z,99667.44
2023-01-13T09:23:57.266Z,99668.25
2023-01-13T09:26:23.773Z,99676.34
2023-01-13T09:28:50.333Z,99672.59
2023-01-13T09:31:17.023Z,99688.03
2023-01-13T09:34:02.387Z,99679.72
2023-01-13T09:36:28.937Z,99690.38
2023-01-13T09:38:55.457Z,99674.31
2023-01-13T09:41:43.486Z,99686.41
2023-01-13T09:44:16.638Z,99686.91
2023-01-13T09:46:49.459Z,99679.81
2023-01-13T09:49:38.734Z,99685.19
2023-01-13T09:52:19.630Z,99677.22
2023-01-13T09:54:55.702Z,99694.72
2023-01-13T09:57:22.335Z,99690.66
2023-01-13T09:59:49.118Z,99690.34
2023-01-13T10:02:21.655Z,99695.13
2023-01-13T10:05:16.938Z,99693.03
2023-01-13T10:07:50.893Z,99714.22
2023-01-13T10:10:27.950Z,99697.22
2023-01-13T10:13:14.259Z,99696.03
2023-01-13T10:15:46.875Z,99695.66
2023-01-13T10:18:55.104Z,99694.00
2023-01-13T10:21:41.893Z,99709.19
2023-01-13T10:24:34.292Z,99714.56
2023-01-13T10:27:12.537Z,99715.72
2023-01-13T10:29:39.129Z,99706.06
2023-01-13T10:32:05.670Z,99712.72
2023-01-13T10:34:47.123Z,99703.75
2023-01-13T10:37:28.009Z,99709.63
2023-01-13T10:39:57.534Z,99708.22
2023-01-13T10:42:24.494Z,99711.94
2023-01-13T10:44:59.558Z,99703.22
2023-01-13T10:47:35.533Z,99699.66
2023-01-13T10:50:11.591Z,99696.44
2023-01-13T10:52:43.356Z,99705.75
2023-01-13T10:55:24.826Z,99698.16
2023-01-13T10:57:51.517Z,99708.50
2023-01-13T11:00:31.858Z,99712.19
2023-01-13T11:03:13.818Z,99707.78
2023-01-13T11:05:47.463Z,99710.63
2023-01-13T11:08:18.385Z,99710.25
2023-01-13T11:10:50.557Z,99704.06
2023-01-13T11:13:23.877Z,99704.91
2023-01-13T11:15:50.674Z,99707.59
2023-01-13T11:19:01.877Z,99706.75
2023-01-13T11:21:35.641Z,99707.00
2023-01-13T11:24:37.069Z,99709.97
2023-01-13T11:27:07.368Z,99715.22
2023-01-13T11:29:55.929Z,99740.91
2023-01-13T11:32:24.514Z,99721.53
2023-01-13T11:34:56.414Z,99722.31
2023-01-13T11:37:27.047Z,99729.00
2023-01-13T11:40:12.466Z,99722.78
2023-01-13T11:42:48.100Z,99728.97
2023-01-13T11:45:17.743Z,99719.72
2023-01-13T11:47:47.275Z,99721.09
2023-01-13T11:50:18.617Z,99717.75
2023-01-13T11:53:01.441Z,99723.69
2023-01-13T11:55:39.656Z,99725.72
2023-01-13T11:58:24.231Z,99721.09
2023-01-13T12:01:13.290Z,99711.66
2023-01-13T12:03:49.625Z,99722.22
2023-01-13T12:06:24.729Z,99723.66
2023-01-13T12:09:09.822Z,99724.28
2023-01-13T12:12:10.124Z,99745.75
2023-01-13T12:14:53.386Z,99761.22
2023-01-13T12:17:34.637Z,99784.59
2023-01-13T12:20:26.308Z,99789.28
2023-01-13T12:22:57.843Z,99794.63
2023-01-13T12:25:33.350Z,99792.28
2023-01-13T12:28:11.371Z,99789.97
2023-01-13T12:30:50.385Z,99775.34
2023-01-13T12:33:26.004Z,99781.00
2023-01-13T12:36:07.754Z,99771.03
2023-01-13T12:38:42.135Z,99771.00
2023-01-13T12:41:59.543Z,99776.53
2023-01-13T12:44:26.147Z,99775.69
2023-01-13T12:46:56.141Z,99790.47
2023-01-13T12:49:34.436Z,99775.59
2023-01-13T12:52:07.827Z,99786.25
2023-01-13T12:54:37.329Z,99781.63
2023-01-13T12:57:21.506Z,99773.41
2023-01-13T13:00:03.157Z,99792.66
2023-01-13T13:02:40.523Z,99777.34
2023-01-13T13:05:25.176Z,99791.28
2023-01-13T13:08:00.781Z,99787.88
2023-01-13T13:10:34.645Z,99786.66
2023-01-13T13:13:18.440Z,99785.31
2023-01-13T13:15:51.906Z,99790.41
2023-01-13T13:18:19.464Z,99789.81
2023-01-13T13:21:02.370Z,99790.44
2023-01-13T13:23:34.431Z,99795.53
2023-01-13T13:26:20.214Z,99793.22
2023-01-13T13:28:56.015Z,99793.63
2023-01-13T13:31:44.345Z,99787.56
2023-01-13T13:34:32.438Z,99798.91
2023-01-13T13:37:07.934Z,99812.91
2023-01-13T13:40:01.085Z,99824.16
2023-01-13T13:42:53.230Z,99810.16
2023-01-13T13:45:44.403Z,99846.13
2023-01-13T13:48:34.212Z,99858.47
2023-01-13T13:51:05.692Z,99853.59
2023-01-13T13:53:41.335Z,99862.50
2023-01-13T13:56:22.812Z,99892.09
2023-01-13T13:58:50.393Z,99879.41
2023-01-13T14:01:29.962Z,99880.25
2023-01-13T14:04:18.365Z,99879.81
2023-01-13T14:07:00.671Z,99892.50
2023-01-13T14:09:39.713Z,99895.06
2023-01-13T14:12:19.641Z,99908.59
2023-01-13T14:14:48.130Z,99906.06
2023-01-13T14:17:25.107Z,99906.03
2023-01-13T14:19:55.588Z,99924.84
2023-01-13T14:22:22.485Z,99918.25
2023-01-13T14:24:55.328Z,99936.22
2023-01-13T14:27:23.843Z,99940.25
2023-01-13T14:29:55.536Z,99940.34
2023-01-13T14:32:29.325Z,99932.50
2023-01-13T14:34:55.923Z,99944.56
2023-01-13T14:37:25.310Z,99932.72
2023-01-13T14:39:52.324Z,99944.53
2023-01-13T14:42:19.221Z,99940.34
2023-01-13T14:44:49.599Z,99957.25
2023-01-13T14:47:27.813Z,99956.84
2023-01-13T14:50:02.247Z,99960.63
2023-01-13T14:52:32.699Z,99961.91
2023-01-13T14:55:09.903Z,99970.38
2023-01-13T14:57:39.482Z,99979.25
2023-01-13T15:00:21.224Z,99974.56
2023-01-13T15:02:57.179Z,99977.13
2023-01-13T15:05:26.658Z,99978.84
2023-01-13T15:07:59.334Z,99979.22
2023-01-13T15:10:31.765Z,99981.34
2023-01-13T15:13:01.487Z,99990.47
2023-01-13T15:15:38.123Z,99993.41
2023-01-13T15:18:14.076Z,100000.84
2023-01-13T15:20:41.985Z,100009.72
2023-01-13T15:23:09.169Z,100021.16
2023-01-13T15:25:38.105Z,100013.13
2023-01-13T15:28:06.733Z,100024.94
2023-01-13T15:30:33.569Z,100029.81
2023-01-13T15:33:00.160Z,100033.00
2023-01-13T15:35:29.193Z,100036.19
2023-01-13T15:37:56.763Z,100038.31
2023-01-13T15:40:31.104Z,100045.31
2023-01-13T15:43:16.793Z,100045.72
2023-01-13T15:46:02.547Z,100047.00
2023-01-13T15:48:33.041Z,100048.25
2023-01-13T15:51:02.283Z,100049.06
2023-01-13T15:53:29.738Z,100050.28
2023-01-13T15:55:58.927Z,100061.75
2023-01-13T15:58:34.495Z,100065.16
2023-01-13T16:01:01.305Z,100063.47
2023-01-13T16:03:27.937Z,100078.28
2023-01-13T16:05:54.525Z,100073.22
2023-01-13T16:08:22.830Z,100073.00
2023-01-13T16:10:49.850Z,100092.50
2023-01-13T16:13:17.702Z,100076.63
2023-01-13T16:15:48.763Z,100081.94
2023-01-13T16:18:21.432Z,100086.38
2023-01-13T16:20:52.678Z,100098.66
2023-01-13T16:23:19.853Z,100097.81
2023-01-13T16:25:46.740Z,100103.09
2023-01-13T16:28:23.897Z,100113.25
2023-01-13T16:30:51.123Z,100114.94
2023-01-13T16:33:17.824Z,100117.91
2023-01-13T16:36:09.721Z,100107.94
2023-01-13T16:38:31.038Z,100129.13
2023-01-13T16:40:57.668Z,100132.50
2023-01-13T16:43:24.277Z,100130.41
2023-01-13T16:45:50.844Z,100148.63
2023-01-13T16:48:20.317Z,100149.72
2023-01-13T16:50:47.392Z,100146.94
2023-01-13T16:53:14.012Z,100150.78
2023-01-13T16:55:41.706Z,100160.53
2023-01-13T17:02:37.347Z,100178.28
2023-01-13T17:05:04.329Z,100181.03
2023-01-13T17:07:31.397Z,100178.69
2023-01-13T17:09:59.108Z,100178.28
2023-01-13T17:12:25.624Z,100167.69
2023-01-13T17:14:52.162Z,100185.09
2023-01-13T17:17:27.198Z,100182.50
2023-01-13T17:19:54.389Z,100188.69
2023-01-13T17:22:21.679Z,100187.22
2023-01-13T17:24:48.972Z,100192.31
2023-01-13T17:27:17.173Z,100198.25
2023-01-13T17:29:44.377Z,100193.81
2023-01-13T17:32:16.661Z,100187.22
2023-01-13T17:34:44.447Z,100208.34
2023-01-13T17:37:14.564Z,100201.94
2023-01-13T17:39:44.110Z,100214.56
2023-01-13T17:42:11.351Z,100216.66
2023-01-13T17:44:38.521Z,100217.13
2023-01-13T17:47:05.805Z,100221.97
2023-01-13T17:49:32.709Z,100229.72
2023-01-13T17:51:59.314Z,100235.56
2023-01-13T17:54:25.938Z,100237.31
2023-01-13T17:56:52.545Z,100236.00
2023-01-13T17:59:19.727Z,100243.69
2023-01-13T18:01:46.387Z,100258.13
2023-01-13T18:04:18.132Z,100251.28
2023-01-13T18:06:45.206Z,100245.00
2023-01-13T18:09:12.164Z,100256.22
2023-01-13T18:11:39.057Z,100268.22
2023-01-13T18:14:06.557Z,100263.78
2023-01-13T18:16:33.224Z,100258.09
2023-01-13T18:19:19.084Z,100251.72
2023-01-13T18:22:04.890Z,100263.56
2023-01-13T18:24:50.091Z,100262.53
2023-01-13T18:27:19.695Z,100259.31
2023-01-13T18:29:46.799Z,100261.00
2023-01-13T18:32:13.992Z,100270.47
2023-01-13T18:34:40.655Z,100267.16
2023-01-13T18:37:09.303Z,100274.00
2023-01-13T18:39:38.635Z,100277.16
2023-01-13T18:42:25.590Z,100275.81
2023-01-13T18:44:53.116Z,100273.84
2023-01-13T18:47:20.005Z,100283.47
2023-01-13T18:49:46.653Z,100275.00
2023-01-13T18:52:13.203Z,100280.50
2023-01-13T18:54:39.761Z,100289.78
2023-01-13T18:57:06.406Z,100284.13
2023-01-13T18:59:34.568Z,100295.44
2023-01-13T19:02:02.616Z,100294.94
2023-01-13T19:04:29.464Z,100301.66
2023-01-13T19:07:00.651Z,100296.84
2023-01-13T19:09:31.209Z,100297.34
2023-01-13T19:11:58.733Z,100310.06
2023-01-13T19:14:34.399Z,100309.63
2023-01-13T19:17:09.842Z,100312.22
2023-01-13T19:19:39.829Z,100317.94
2023-01-13T19:22:07.218Z,100325.72
2023-01-13T19:24:34.419Z,100337.56
2023-01-13T19:27:00.983Z,100344.03
2023-01-13T19:29:28.082Z,100350.34
2023-01-13T19:31:54.709Z,100355.72
2023-01-13T19:34:22.893Z,100327.78
2023-01-13T19:36:51.806Z,100342.81
2023-01-13T19:39:19.609Z,100344.00
2023-01-13T19:42:04.815Z,100358.59
2023-01-13T19:44:49.911Z,100351.50
2023-01-13T19:47:16.980Z,100346.41
2023-01-13T19:49:44.031Z,100361.31
2023-01-13T19:52:10.697Z,100353.47
2023-01-13T19:54:37.256Z,100371.50
2023-01-13T19:57:04.280Z,100366.06
2023-01-13T19:59:32.405Z,100371.00
2023-01-13T20:02:09.031Z,100376.34
2023-01-13T20:04:38.541Z,100378.22
2023-01-13T20:07:06.250Z,100388.09
2023-01-13T20:09:34.480Z,100395.94
2023-01-13T20:12:08.116Z,100403.13
2023-01-13T20:14:34.711Z,100392.84
2023-01-13T20:17:01.231Z,100394.88
2023-01-13T20:19:27.785Z,100395.91
2023-01-13T20:21:54.296Z,100402.78
2023-01-13T20:24:21.167Z,100407.44
2023-01-13T20:26:47.748Z,100408.91
2023-01-13T20:29:14.378Z,100416.53
2023-01-13T20:31:40.928Z,100412.38
2023-01-13T20:34:07.556Z,100417.50
2023-01-13T20:36:38.798Z,100415.81
2023-01-13T20:39:08.096Z,100417.47
2023-01-13T20:41:53.171Z,100412.22
2023-01-13T20:44:19.670Z,100421.28
2023-01-13T20:46:46.289Z,100421.69
2023-01-13T20:49:14.918Z,100416.09
2023-01-13T20:51:42.447Z,100428.56
2023-01-13T20:54:09.248Z,100434.00
2023-01-13T20:56:36.511Z,100442.09
2023-01-13T20:59:03.563Z,100446.53
2023-01-13T21:01:31.941Z,100451.00
2023-01-13T21:03:59.912Z,100454.41
2023-01-13T21:06:28.247Z,100459.09
2023-01-13T21:08:55.281Z,100467.19
2023-01-13T21:11:42.692Z,100468.13
2023-01-13T21:14:42.590Z,100464.31
2023-01-13T21:17:28.733Z,100474.13
2023-01-13T21:19:56.016Z,100474.13
2023-01-13T21:22:22.879Z,100474.13
2023-01-13T21:24:49.669Z,100478.09
2023-01-13T21:27:17.628Z,100478.97
2023-01-13T21:29:44.531Z,100478.31
2023-01-13T21:32:11.389Z,100478.03
2023-01-13T21:34:37.987Z,100474.94
2023-01-13T21:37:04.510Z,100480.06
2023-01-13T21:39:31.155Z,100482.22
2023-01-13T21:42:16.427Z,100489.53
2023-01-13T21:45:01.760Z,100491.09
2023-01-13T21:47:46.987Z,100498.25
2023-01-13T21:50:15.426Z,100493.91
2023-01-13T21:52:42.872Z,100489.53
2023-01-13T21:55:17.054Z,100497.22
2023-01-13T21:57:51.101Z,100489.44
2023-01-13T22:00:20.214Z,100501.44
2023-01-13T22:02:47.932Z,100505.16
2023-01-13T22:05:17.811Z,100513.19
2023-01-13T22:07:44.459Z,100504.31
2023-01-13T22:10:14.292Z,100507.78
2023-01-13T22:12:41.095Z,100515.88
2023-01-13T22:15:08.452Z,100511.50
2023-01-13T22:17:35.138Z,100514.84
2023-01-13T22:20:01.923Z,100505.59
2023-01-13T22:22:29.120Z,100504.53
2023-01-13T22:24:55.866Z,100508.41
2023-01-13T22:27:25.287Z,100508.34
2023-01-13T22:29:52.975Z,100512.16
2023-01-13T22:32:20.683Z,100520.03
2023-01-13T22:34:47.893Z,100530.44
2023-01-13T22:37:14.568Z,100533.03
2023-01-13T22:39:41.236Z,100536.78
2023-01-13T22:42:08.046Z,100532.41
2023-01-13T22:44:34.668Z,100531.28
2023-01-13T22:47:01.318Z,100550.94
2023-01-13T22:49:27.881Z,100551.41
2023-01-13T22:51:54.508Z,100548.75
2023-01-13T22:54:21.900Z,100558.88
2023-01-13T22:56:48.474Z,100559.03
2023-01-13T22:59:15.941Z,100564.28
2023-01-13T23:01:42.906Z,100567.44
2023-01-13T23:04:13.469Z,100562.06
2023-01-13T23:06:41.010Z,100568.81
2023-01-13T23:09:08.171Z,100560.88
2023-01-13T23:11:35.253Z,100570.81
2023-01-13T23:14:07.100Z,100551.78
2023-01-13T23:16:36.667Z,100566.00
2023-01-13T23:19:05.152Z,100576.16
2023-01-13T23:21:35.998Z,100570.03
2023-01-13T23:24:04.330Z,100568.28
2023-01-13T23:26:31.579Z,100570.78
2023-01-13T23:29:04.406Z,100591.81
2023-01-13T23:31:31.536Z,100585.25
2023-01-13T23:33:58.091Z,100586.38
2023-01-13T23:36:26.273Z,100593.19
2023-01-13T23:38:53.419Z,100596.47
2023-01-13T23:41:24.435Z,100590.69
2023-01-13T23:43:56.998Z,100585.75
2023-01-13T23:46:24.451Z,100595.28
2023-01-13T23:48:52.139Z,100596.69
2023-01-13T23:51:21.184Z,100592.31
2023-01-13T23:53:49.888Z,100588.03
2023-01-13T23:56:19.339Z,100597.94
2023-01-13T23:58:46.345Z,100596.25
